Nathrop, CO

11:54 PM MDT on September 02, 2015 (GMT -0600)
Saint Elmo Ghost Town 10052 ft | | Change Station
CLOSE
Current Station
Personal Weather Station
Location: St. Elmo, CO
Elevation: 10052 ft
Nearby Weather Stations

Elev 10052 ft 38.71 °N, 106.35 °W | Updated 4 minutes ago

Clear
Clear
--
Feels Like --
N
0.0
Wind Variable Wind from North
Gusts 0.0 mph

Today
High -- | Low -- °F
--% Chance of Precip.
Yesterday
High -- | Low -- °F
Precip. -- in
6:35 AM 7:34 PM
Waning Gibbous, 73% visible
Pressure 30.30 in
Visibility 10.0 miles
Clouds Clear
Dew Point Not available.
Humidity Not available.
Rainfall Not available.
Snow Depth Not available.
UV 0 out of 12
Pollen 10.50 out of 12
Air Quality Not available.
Flu Activity Not available.
METAR KAEJ 030535Z AUTO 00000KT 10SM CLR 13/04 A3030 RMK AO2 T01250043
Pressure 30.30 in
Visibility 10.0 miles
Clouds Clear
Dew Point Not available.
Humidity Not available.
Rainfall Not available.
Snow Depth Not available.
UV 0 out of 12
Pollen 10.50 out of 12
Air Quality Not available.
Flu Activity Not available.
METAR KAEJ 030535Z AUTO 00000KT 10SM CLR 13/04 A3030 RMK AO2 T01250043

10-Day Weather Forecast

×

Almanac

Astronomy

Sep. 02, 2015 Rise Set
Actual Time
Civil Twilight
Nautical Twilight
Astronomical Twilight
Moon
Length of Visible Light
Length of Day
Tomorrow will be .
, % of the Moon is Illuminated

Today's Extremes

State Highs State Lows

Community

WunderPhotos

Upload Photos

1,851,914 photos uploaded!

WunderBlogs® & News

Nearby

Air Quality

  Air Quality AQ Index Pollutant
Not available.

Snow Depth

Station Depth Elevation

Earthquake Activity

City Distance Mag. Time & Date
Minimum magnitude displayed is 2.5.

Coastal Water Temperatures

Place Temperature

Stations

Nearby Weather Stations

Station Location Temp. Windchill Dew Point Humidity Wind Precip. Elev Updated Type